createdAt,value
2022-12-27T00:01:14.822Z,3.90
2022-12-27T00:03:43.568Z,3.90
2022-12-27T00:06:13.709Z,3.90
2022-12-27T00:08:43.634Z,3.90
2022-12-27T00:11:14.102Z,3.90
2022-12-27T00:13:42.268Z,3.90
2022-12-27T00:16:12.978Z,3.90
2022-12-27T00:18:41.912Z,4.00
2022-12-27T00:21:12.482Z,3.90
2022-12-27T00:23:43.888Z,3.90
2022-12-27T00:26:14.676Z,4.00
2022-12-27T00:28:43.275Z,4.00
2022-12-27T00:31:11.813Z,4.00
2022-12-27T00:33:41.874Z,3.90
2022-12-27T00:36:14.158Z,3.90
2022-12-27T00:38:44.431Z,3.90
2022-12-27T00:41:13.013Z,3.90
2022-12-27T00:43:41.691Z,3.80
2022-12-27T00:46:10.334Z,3.80
2022-12-27T00:48:38.851Z,3.80
2022-12-27T00:51:09.007Z,3.80
2022-12-27T00:53:37.562Z,3.80
2022-12-27T00:56:10.515Z,3.80
2022-12-27T00:58:40.991Z,3.80
2022-12-27T01:01:12.403Z,3.70
2022-12-27T01:03:41.022Z,3.70
2022-12-27T01:06:11.184Z,3.70
2022-12-27T01:08:39.347Z,3.70
2022-12-27T01:11:10.365Z,3.70
2022-12-27T01:13:38.977Z,3.80
2022-12-27T01:16:11.631Z,3.70
2022-12-27T01:18:40.128Z,3.80
2022-12-27T01:21:09.103Z,3.80
2022-12-27T01:23:37.871Z,3.80
2022-12-27T01:26:10.016Z,3.70
2022-12-27T01:28:38.573Z,3.80
2022-12-27T01:31:07.754Z,3.80
2022-12-27T01:33:36.142Z,3.80
2022-12-27T01:36:13.166Z,3.70
2022-12-27T01:38:43.147Z,3.80
2022-12-27T01:41:34.417Z,3.70
2022-12-27T01:44:02.852Z,3.70
2022-12-27T01:46:31.793Z,3.80
2022-12-27T01:49:03.214Z,3.80
2022-12-27T01:51:33.136Z,3.70
2022-12-27T01:54:01.616Z,3.70
2022-12-27T01:56:32.758Z,3.70
2022-12-27T01:59:04.496Z,3.70
2022-12-27T02:01:36.558Z,3.70
2022-12-27T02:04:08.907Z,3.70
2022-12-27T02:06:38.589Z,3.80
2022-12-27T02:09:13.997Z,3.70
2022-12-27T02:11:56.408Z,3.80
2022-12-27T02:14:28.653Z,3.70
2022-12-27T02:16:58.606Z,3.70
2022-12-27T02:19:36.512Z,3.70
2022-12-27T02:22:20.403Z,3.70
2022-12-27T02:25:02.992Z,3.70
2022-12-27T02:28:02.822Z,3.70
2022-12-27T02:30:34.697Z,3.80
2022-12-27T02:33:07.764Z,3.70
2022-12-27T02:35:40.203Z,3.80
2022-12-27T02:38:13.027Z,3.80
2022-12-27T02:41:00.801Z,3.80
2022-12-27T02:43:47.535Z,3.80
2022-12-27T02:46:40.170Z,3.80
2022-12-27T02:49:38.772Z,3.80
2022-12-27T02:52:30.246Z,3.80
2022-12-27T02:55:20.716Z,3.80
2022-12-27T02:57:59.923Z,3.80
2022-12-27T03:00:48.675Z,3.80
2022-12-27T03:03:31.540Z,3.80
2022-12-27T03:06:41.717Z,3.80
2022-12-27T03:09:48.469Z,3.80
2022-12-27T03:12:42.995Z,3.80
2022-12-27T03:15:41.814Z,3.80
2022-12-27T03:18:15.744Z,3.80
2022-12-27T03:21:05.563Z,3.90
2022-12-27T03:23:52.452Z,3.90
2022-12-27T03:26:23.349Z,3.90
2022-12-27T03:29:11.139Z,3.90
2022-12-27T03:32:01.369Z,3.90
2022-12-27T03:34:36.271Z,3.90
2022-12-27T03:37:26.631Z,3.80
2022-12-27T03:40:02.430Z,3.80
2022-12-27T03:42:51.487Z,3.90
2022-12-27T03:45:22.239Z,3.90
2022-12-27T03:47:54.837Z,4.00
2022-12-27T03:50:27.255Z,4.00
2022-12-27T03:53:00.593Z,4.00
2022-12-27T03:55:33.361Z,4.00
2022-12-27T03:58:02.339Z,4.00
2022-12-27T04:00:30.481Z,4.10
2022-12-27T04:02:59.436Z,4.00
2022-12-27T04:05:27.684Z,4.00
2022-12-27T04:08:14.564Z,4.00
2022-12-27T04:11:00.418Z,4.00
2022-12-27T04:13:46.267Z,4.00
2022-12-27T04:16:31.845Z,4.00
2022-12-27T04:19:18.118Z,4.10
2022-12-27T04:22:03.876Z,4.10
2022-12-27T04:24:50.538Z,4.10
2022-12-27T04:27:36.159Z,4.00
2022-12-27T04:30:22.864Z,4.10
2022-12-27T04:33:08.230Z,4.00
2022-12-27T04:35:37.320Z,4.00
2022-12-27T04:38:05.765Z,4.00
2022-12-27T04:40:52.482Z,4.00
2022-12-27T04:43:38.106Z,4.00
2022-12-27T04:46:24.792Z,4.10
2022-12-27T04:49:21.894Z,4.10
2022-12-27T04:52:07.443Z,4.00
2022-12-27T04:54:53.236Z,4.00
2022-12-27T04:57:22.710Z,4.00
2022-12-27T05:00:08.860Z,4.00
2022-12-27T05:02:37.574Z,4.10
2022-12-27T05:05:06.454Z,4.00
2022-12-27T05:07:52.062Z,4.00
2022-12-27T05:10:37.849Z,4.10
2022-12-27T05:13:25.468Z,4.10
2022-12-27T05:15:53.772Z,4.10
2022-12-27T05:18:21.895Z,4.10
2022-12-27T05:20:50.235Z,4.10
2022-12-27T05:23:41.316Z,4.10
2022-12-27T05:26:09.392Z,4.20
2022-12-27T05:28:39.140Z,4.20
2022-12-27T05:31:07.256Z,4.20
2022-12-27T05:33:35.805Z,4.30
2022-12-27T05:36:03.918Z,4.30
2022-12-27T05:38:32.004Z,4.30
2022-12-27T05:41:00.728Z,4.30
2022-12-27T05:43:29.656Z,4.40
2022-12-27T05:46:04.773Z,4.40
2022-12-27T05:48:32.915Z,4.50
2022-12-27T05:51:05.584Z,4.50
2022-12-27T05:53:33.708Z,4.50
2022-12-27T05:56:01.936Z,4.60
2022-12-27T05:58:30.844Z,4.60
2022-12-27T06:01:01.421Z,4.60
2022-12-27T06:03:29.694Z,4.60
2022-12-27T06:06:02.518Z,4.70
2022-12-27T06:08:30.991Z,4.70
2022-12-27T06:11:07.834Z,4.70
2022-12-27T06:13:36.660Z,4.70
2022-12-27T06:16:08.721Z,4.80
2022-12-27T06:18:38.932Z,4.80
2022-12-27T06:21:09.642Z,4.80
2022-12-27T06:23:39.721Z,4.80
2022-12-27T06:26:08.341Z,4.80
2022-12-27T06:28:37.106Z,4.90
2022-12-27T06:31:07.027Z,4.90
2022-12-27T06:33:35.669Z,5.00
2022-12-27T06:36:08.257Z,4.90
2022-12-27T06:38:36.513Z,5.00
2022-12-27T06:41:05.932Z,5.00
2022-12-27T06:43:34.297Z,5.00
2022-12-27T06:46:05.671Z,5.00
2022-12-27T06:48:35.595Z,5.00
2022-12-27T06:51:06.599Z,5.00
2022-12-27T06:53:36.292Z,5.00
2022-12-27T06:56:06.055Z,5.00
2022-12-27T06:58:34.212Z,5.00
2022-12-27T07:01:09.133Z,5.00
2022-12-27T07:03:39.096Z,5.10
2022-12-27T07:06:08.789Z,5.10
2022-12-27T07:08:37.440Z,5.10
2022-12-27T07:11:07.576Z,5.10
2022-12-27T07:13:37.113Z,5.10
2022-12-27T07:16:06.156Z,5.10
2022-12-27T07:18:34.652Z,5.10
2022-12-27T07:21:07.303Z,5.10
2022-12-27T07:23:35.477Z,5.10
2022-12-27T07:26:04.781Z,5.10
2022-12-27T07:28:33.262Z,5.10
2022-12-27T07:31:01.465Z,5.10
2022-12-27T07:33:29.937Z,5.20
2022-12-27T07:36:01.889Z,5.30
2022-12-27T07:38:31.741Z,5.20
2022-12-27T07:41:00.958Z,5.20
2022-12-27T07:43:31.244Z,5.20
2022-12-27T07:46:05.072Z,5.20
2022-12-27T07:48:33.324Z,5.20
2022-12-27T07:51:02.027Z,5.20
2022-12-27T07:53:32.139Z,5.20
2022-12-27T07:56:00.741Z,5.20
2022-12-27T07:58:29.251Z,5.20
2022-12-27T08:00:57.538Z,5.20
2022-12-27T08:03:25.695Z,5.20
2022-12-27T08:05:54.245Z,5.20
2022-12-27T08:08:24.965Z,5.20
2022-12-27T08:10:54.483Z,5.30
2022-12-27T08:13:22.605Z,5.30
2022-12-27T08:15:54.114Z,5.20
2022-12-27T08:18:22.629Z,5.30
2022-12-27T08:20:51.378Z,5.30
2022-12-27T08:23:19.769Z,5.30
2022-12-27T08:25:49.111Z,5.30
2022-12-27T08:28:20.298Z,5.40
2022-12-27T08:30:48.772Z,5.30
2022-12-27T08:33:17.294Z,5.40
2022-12-27T08:35:55.013Z,5.40
2022-12-27T08:38:23.707Z,5.40
2022-12-27T08:40:51.944Z,5.40
2022-12-27T08:43:21.731Z,5.40
2022-12-27T08:45:50.581Z,5.40
2022-12-27T08:48:18.755Z,5.40
2022-12-27T08:50:47.111Z,5.50
2022-12-27T08:53:15.194Z,5.50
2022-12-27T08:55:43.578Z,5.50
2022-12-27T08:58:16.304Z,5.50
2022-12-27T09:00:46.071Z,5.50
2022-12-27T09:03:19.713Z,5.60
2022-12-27T09:05:49.489Z,5.60
2022-12-27T09:08:18.225Z,5.50
2022-12-27T09:10:46.322Z,5.60
2022-12-27T09:13:14.648Z,5.60
2022-12-27T09:15:43.626Z,5.60
2022-12-27T09:18:13.556Z,5.60
2022-12-27T09:20:41.644Z,5.60
2022-12-27T09:23:09.744Z,5.60
2022-12-27T09:25:37.937Z,5.60
2022-12-27T09:28:06.594Z,5.60
2022-12-27T09:30:34.969Z,5.60
2022-12-27T09:33:03.210Z,5.60
2022-12-27T09:35:36.931Z,5.60
2022-12-27T09:38:06.976Z,5.70
2022-12-27T09:40:35.173Z,5.70
2022-12-27T09:43:20.653Z,5.60
2022-12-27T09:45:55.749Z,5.60
2022-12-27T09:48:33.289Z,5.70
2022-12-27T09:51:07.481Z,5.70
2022-12-27T09:53:44.526Z,5.70
2022-12-27T09:56:15.357Z,5.70
2022-12-27T09:58:50.383Z,5.70
2022-12-27T10:01:24.831Z,5.70
2022-12-27T10:03:54.143Z,5.70
2022-12-27T10:06:41.229Z,5.70
2022-12-27T10:09:27.630Z,5.70
2022-12-27T10:12:05.717Z,5.70
2022-12-27T10:14:49.981Z,5.70
2022-12-27T10:17:35.569Z,5.80
2022-12-27T10:20:18.165Z,5.80
2022-12-27T10:22:50.380Z,5.80
2022-12-27T10:25:22.470Z,5.80
2022-12-27T10:27:56.136Z,5.80
2022-12-27T10:30:24.735Z,5.80
2022-12-27T10:32:53.715Z,5.80
2022-12-27T10:35:22.780Z,5.80
2022-12-27T10:37:54.074Z,5.80
2022-12-27T10:40:29.819Z,5.80
2022-12-27T10:43:04.943Z,5.80
2022-12-27T10:45:34.756Z,5.80
2022-12-27T10:48:16.450Z,5.80
2022-12-27T10:50:56.043Z,5.80
2022-12-27T10:53:34.751Z,5.70
2022-12-27T10:56:17.382Z,5.90
2022-12-27T10:58:51.559Z,5.90
2022-12-27T11:01:25.911Z,5.90
2022-12-27T11:04:13.049Z,5.90
2022-12-27T11:06:47.350Z,5.90
2022-12-27T11:09:32.188Z,6.00
2022-12-27T11:12:20.349Z,6.00
2022-12-27T11:14:56.724Z,6.00
2022-12-27T11:17:28.012Z,6.10
2022-12-27T11:19:59.130Z,6.10
2022-12-27T11:22:28.061Z,6.30
2022-12-27T11:25:00.848Z,6.40
2022-12-27T11:27:30.940Z,6.60
2022-12-27T11:30:00.957Z,6.80
2022-12-27T11:32:29.152Z,6.90
2022-12-27T11:34:58.666Z,7.00
2022-12-27T11:37:28.364Z,7.10
2022-12-27T11:40:15.511Z,7.10
2022-12-27T11:42:47.381Z,7.30
2022-12-27T11:45:24.189Z,7.30
2022-12-27T11:47:58.221Z,7.30
2022-12-27T11:50:52.933Z,7.30
2022-12-27T11:53:40.157Z,7.30
2022-12-27T11:56:19.856Z,7.20
2022-12-27T11:59:15.853Z,7.30
2022-12-27T12:02:26.672Z,7.30
2022-12-27T12:05:45.051Z,7.40
2022-12-27T12:08:33.527Z,7.30
2022-12-27T12:11:16.282Z,7.10
2022-12-27T12:14:01.603Z,7.30
2022-12-27T12:17:08.936Z,7.40
2022-12-27T12:19:55.639Z,7.40
2022-12-27T12:22:38.814Z,7.60
2022-12-27T12:25:36.767Z,7.50
2022-12-27T12:28:57.179Z,7.60
2022-12-27T12:31:35.443Z,7.50
2022-12-27T12:34:18.719Z,7.50
2022-12-27T12:37:02.323Z,7.40
2022-12-27T12:39:54.819Z,7.40
2022-12-27T12:42:32.627Z,7.30
2022-12-27T12:45:26.378Z,7.20
2022-12-27T12:48:21.520Z,7.30
2022-12-27T12:51:08.364Z,7.10
2022-12-27T12:53:52.019Z,7.10
2022-12-27T12:56:43.411Z,7.10
2022-12-27T12:59:27.240Z,7.20
2022-12-27T13:02:13.853Z,7.10
2022-12-27T13:05:03.398Z,7.20
2022-12-27T13:07:53.740Z,7.00
2022-12-27T13:10:46.443Z,7.10
2022-12-27T13:13:22.649Z,7.10
2022-12-27T13:16:05.708Z,6.80
2022-12-27T13:18:46.778Z,7.10
2022-12-27T13:21:25.154Z,6.90
2022-12-27T13:24:03.990Z,6.90
2022-12-27T13:26:42.122Z,7.00
2022-12-27T13:29:37.920Z,7.00
2022-12-27T13:32:14.490Z,6.90
2022-12-27T13:34:53.679Z,6.90
2022-12-27T13:37:32.120Z,6.90
2022-12-27T13:40:19.077Z,6.80
2022-12-27T13:43:16.401Z,6.90
2022-12-27T13:45:56.653Z,6.80
2022-12-27T13:48:46.139Z,6.60
2022-12-27T13:51:35.390Z,6.70
2022-12-27T13:54:41.781Z,6.80
2022-12-27T13:57:37.771Z,6.70
2022-12-27T14:00:15.575Z,6.70
2022-12-27T14:03:07.048Z,6.80
2022-12-27T14:06:07.201Z,6.80
2022-12-27T14:09:03.562Z,6.70
2022-12-27T14:11:42.050Z,6.80
2022-12-27T14:14:15.065Z,6.70
2022-12-27T14:16:59.353Z,6.70
2022-12-27T14:19:53.041Z,6.60
2022-12-27T14:22:48.460Z,6.60
2022-12-27T14:26:02.622Z,6.60
2022-12-27T14:29:01.398Z,6.50
2022-12-27T14:32:03.812Z,6.50
2022-12-27T14:35:22.705Z,6.60
2022-12-27T14:38:28.105Z,6.60
2022-12-27T14:41:31.424Z,6.50
2022-12-27T14:44:38.681Z,6.50
2022-12-27T14:47:39.896Z,6.40
2022-12-27T14:50:46.898Z,6.50
2022-12-27T14:53:47.688Z,6.50
2022-12-27T14:56:28.640Z,6.40
2022-12-27T14:59:11.221Z,6.50
2022-12-27T15:01:53.350Z,6.50
2022-12-27T15:04:52.470Z,6.50
2022-12-27T15:07:42.820Z,6.50
2022-12-27T15:10:22.228Z,6.40
2022-12-27T15:12:59.854Z,6.40
2022-12-27T15:15:45.041Z,6.30
2022-12-27T15:19:01.511Z,6.30
2022-12-27T15:21:42.993Z,6.20
2022-12-27T15:24:26.217Z,6.30
2022-12-27T15:27:04.503Z,6.30
2022-12-27T15:29:44.152Z,6.20
2022-12-27T15:32:27.240Z,6.10
2022-12-27T15:35:08.095Z,6.10
2022-12-27T15:37:59.188Z,6.10
2022-12-27T15:40:40.929Z,6.00
2022-12-27T15:43:24.804Z,5.90
2022-12-27T15:46:07.706Z,5.90
2022-12-27T15:48:53.697Z,5.90
2022-12-27T15:51:32.645Z,5.80
2022-12-27T15:54:36.275Z,5.80
2022-12-27T15:57:38.029Z,5.70
2022-12-27T16:00:27.884Z,5.70
2022-12-27T16:03:02.123Z,5.70
2022-12-27T16:05:49.262Z,5.60
2022-12-27T16:08:38.904Z,5.50
2022-12-27T16:11:12.504Z,5.50
2022-12-27T16:13:46.761Z,5.50
2022-12-27T16:16:57.518Z,5.50
2022-12-27T16:19:57.566Z,5.50
2022-12-27T16:22:32.240Z,5.40
2022-12-27T16:25:14.468Z,5.40
2022-12-27T16:27:44.450Z,5.40
2022-12-27T16:30:13.830Z,5.50
2022-12-27T16:32:50.179Z,5.40
2022-12-27T16:35:19.713Z,5.40
2022-12-27T16:37:54.697Z,5.30
2022-12-27T16:40:42.645Z,5.30
2022-12-27T16:43:33.527Z,5.40
2022-12-27T16:46:24.149Z,5.40
2022-12-27T16:49:10.869Z,5.30
2022-12-27T16:51:52.694Z,5.30
2022-12-27T16:54:32.514Z,5.30
2022-12-27T16:57:33.162Z,5.30
2022-12-27T17:00:03.926Z,5.30
2022-12-27T17:02:40.445Z,5.30
2022-12-27T17:05:37.127Z,5.30
2022-12-27T17:08:16.166Z,5.30
2022-12-27T17:11:01.057Z,5.20
2022-12-27T17:13:42.854Z,5.30
2022-12-27T17:16:20.349Z,5.20
2022-12-27T17:18:52.974Z,5.20
2022-12-27T17:21:30.193Z,5.20
2022-12-27T17:24:06.407Z,5.20
2022-12-27T17:26:58.045Z,5.10
2022-12-27T17:29:54.266Z,5.20
2022-12-27T17:32:35.243Z,5.10
2022-12-27T17:35:12.220Z,5.00
2022-12-27T17:37:46.389Z,5.00
2022-12-27T17:40:29.201Z,5.00
2022-12-27T17:43:27.334Z,5.00
2022-12-27T17:46:02.627Z,5.00
2022-12-27T17:48:32.211Z,5.00
2022-12-27T17:51:03.447Z,4.90
2022-12-27T17:53:49.469Z,4.80
2022-12-27T17:56:41.101Z,4.90
2022-12-27T17:59:12.856Z,4.90
2022-12-27T18:01:47.647Z,4.80
2022-12-27T18:04:23.288Z,4.90
2022-12-27T18:06:56.277Z,4.90
2022-12-27T18:09:35.736Z,4.90
2022-12-27T18:12:11.713Z,4.80
2022-12-27T18:14:39.919Z,4.80
2022-12-27T18:17:08.043Z,4.80
2022-12-27T18:19:36.426Z,4.80
2022-12-27T18:22:05.363Z,4.80
2022-12-27T18:24:35.162Z,4.80
2022-12-27T18:27:06.879Z,4.90
2022-12-27T18:29:35.563Z,4.90
2022-12-27T18:32:08.725Z,4.90
2022-12-27T18:34:42.070Z,5.00
2022-12-27T18:37:13.460Z,5.00
2022-12-27T18:39:43.525Z,5.00
2022-12-27T18:42:19.681Z,5.00
2022-12-27T18:44:50.488Z,5.00
2022-12-27T18:47:21.812Z,5.10
2022-12-27T18:49:54.961Z,5.00
2022-12-27T18:52:26.824Z,5.10
2022-12-27T18:54:55.652Z,5.10
2022-12-27T18:57:33.337Z,5.10
2022-12-27T19:00:14.750Z,5.10
2022-12-27T19:02:44.161Z,5.10
2022-12-27T19:05:26.098Z,5.20
2022-12-27T19:07:58.406Z,5.20
2022-12-27T19:10:28.623Z,5.20
2022-12-27T19:12:58.993Z,5.10
2022-12-27T19:15:29.908Z,5.10
2022-12-27T19:18:01.782Z,5.10
2022-12-27T19:20:32.949Z,5.10
2022-12-27T19:23:02.713Z,5.10
2022-12-27T19:25:33.239Z,5.10
2022-12-27T19:28:05.776Z,5.10
2022-12-27T19:30:40.377Z,5.20
2022-12-27T19:33:14.368Z,5.20
2022-12-27T19:35:44.489Z,5.20
2022-12-27T19:38:20.671Z,5.20
2022-12-27T19:40:50.920Z,5.20
2022-12-27T19:43:21.657Z,5.20
2022-12-27T19:45:49.807Z,5.20
2022-12-27T19:48:17.956Z,5.30
2022-12-27T19:50:49.171Z,5.40
2022-12-27T19:53:18.813Z,5.40
2022-12-27T19:55:47.254Z,5.40
2022-12-27T19:58:22.944Z,5.50
2022-12-27T20:00:51.313Z,5.50
2022-12-27T20:03:19.868Z,5.50
2022-12-27T20:06:12.778Z,5.60
2022-12-27T20:08:39.662Z,5.60
2022-12-27T20:11:14.497Z,5.60
2022-12-27T20:13:44.033Z,5.60
2022-12-27T20:16:13.372Z,5.70
2022-12-27T20:18:42.058Z,5.60
2022-12-27T20:21:14.175Z,5.70
2022-12-27T20:23:42.616Z,5.80
2022-12-27T20:26:11.207Z,5.80
2022-12-27T20:28:39.485Z,5.80
2022-12-27T20:31:10.502Z,5.80
2022-12-27T20:33:38.799Z,5.80
2022-12-27T20:36:08.540Z,6.00
2022-12-27T20:38:37.025Z,5.90
2022-12-27T20:41:09.353Z,5.90
2022-12-27T20:43:37.690Z,5.90
2022-12-27T20:46:08.932Z,5.90
2022-12-27T20:48:38.625Z,5.90
2022-12-27T20:51:08.669Z,6.00
2022-12-27T20:53:37.189Z,6.00
2022-12-27T20:56:06.781Z,6.00
2022-12-27T20:58:35.065Z,6.00
2022-12-27T21:01:09.164Z,6.00
2022-12-27T21:03:38.307Z,6.00
2022-12-27T21:06:08.101Z,6.00
2022-12-27T21:08:43.166Z,6.10
2022-12-27T21:11:17.290Z,6.00
2022-12-27T21:13:45.703Z,6.10
2022-12-27T21:16:17.268Z,6.00
2022-12-27T21:18:45.886Z,6.00
2022-12-27T21:21:15.502Z,6.00
2022-12-27T21:23:44.416Z,6.10
2022-12-27T21:26:14.685Z,6.00
2022-12-27T21:28:43.724Z,6.10
2022-12-27T21:31:12.822Z,6.10
2022-12-27T21:33:42.849Z,6.10
2022-12-27T21:36:14.193Z,6.10
2022-12-27T21:38:42.973Z,6.10
2022-12-27T21:41:13.859Z,6.10
2022-12-27T21:43:42.775Z,6.10
2022-12-27T21:46:14.241Z,6.10
2022-12-27T21:48:44.561Z,6.10
2022-12-27T21:51:15.069Z,6.20
2022-12-27T21:53:43.992Z,6.20
2022-12-27T21:56:12.869Z,6.20
2022-12-27T21:58:41.456Z,6.20
2022-12-27T22:01:12.880Z,6.10
2022-12-27T22:03:44.052Z,6.10
2022-12-27T22:06:13.896Z,6.10
2022-12-27T22:08:42.805Z,6.10
2022-12-27T22:11:11.891Z,6.10
2022-12-27T22:13:40.287Z,6.20
2022-12-27T22:16:13.308Z,6.20
2022-12-27T22:18:44.980Z,6.20
2022-12-27T22:21:15.720Z,6.20
2022-12-27T22:23:46.777Z,6.10
2022-12-27T22:26:16.860Z,6.10
2022-12-27T22:28:45.402Z,6.10
2022-12-27T22:31:15.973Z,6.10
2022-12-27T22:33:46.019Z,6.10
2022-12-27T22:36:17.202Z,6.20
2022-12-27T22:38:49.485Z,6.10
2022-12-27T22:41:20.533Z,6.20
2022-12-27T22:43:52.057Z,6.10
2022-12-27T22:46:21.338Z,6.10
2022-12-27T22:48:55.078Z,6.10
2022-12-27T22:51:25.333Z,6.10
2022-12-27T22:53:53.559Z,6.10
2022-12-27T22:56:24.360Z,6.00
2022-12-27T22:58:53.058Z,6.00
2022-12-27T23:01:23.346Z,6.00
2022-12-27T23:03:53.302Z,6.00
2022-12-27T23:06:21.902Z,5.90
2022-12-27T23:08:50.207Z,6.00
2022-12-27T23:11:20.647Z,5.90
2022-12-27T23:13:50.289Z,5.90
2022-12-27T23:16:18.411Z,5.90
2022-12-27T23:18:46.703Z,5.90
2022-12-27T23:21:21.654Z,5.80
2022-12-27T23:23:52.553Z,5.80
2022-12-27T23:26:22.671Z,5.80
2022-12-27T23:28:52.795Z,5.80
2022-12-27T23:31:22.141Z,5.70
2022-12-27T23:33:50.807Z,5.70
2022-12-27T23:36:21.174Z,5.60
2022-12-27T23:38:49.622Z,5.70
2022-12-27T23:41:20.611Z,5.60
2022-12-27T23:43:52.597Z,5.60
2022-12-27T23:46:24.031Z,5.50
2022-12-27T23:48:52.777Z,5.50
2022-12-27T23:51:23.069Z,5.50
2022-12-27T23:53:51.300Z,5.60
2022-12-27T23:56:22.143Z,5.50
2022-12-27T23:58:51.925Z,5.50
